sensor_id;sensor_type;location;lat;lon;timestamp;temperature;humidity
78297;DHT22;67555;47.660;19.622;2023-04-24T00:00:05;8.80;60.50
78297;DHT22;67555;47.660;19.622;2023-04-24T00:02:32;8.90;60.20
78297;DHT22;67555;47.660;19.622;2023-04-24T00:04:58;9.00;60.00
78297;DHT22;67555;47.660;19.622;2023-04-24T00:07:29;9.10;59.80
78297;DHT22;67555;47.660;19.622;2023-04-24T00:09:55;9.20;59.50
78297;DHT22;67555;47.660;19.622;2023-04-24T00:12:21;9.20;59.30
78297;DHT22;67555;47.660;19.622;2023-04-24T00:14:47;9.00;59.70
78297;DHT22;67555;47.660;19.622;2023-04-24T00:17:13;8.60;60.70
78297;DHT22;67555;47.660;19.622;2023-04-24T00:19:39;8.30;61.60
78297;DHT22;67555;47.660;19.622;2023-04-24T00:22:04;8.20;62.00
78297;DHT22;67555;47.660;19.622;2023-04-24T00:24:31;8.10;62.40
78297;DHT22;67555;47.660;19.622;2023-04-24T00:26:57;8.10;62.40
78297;DHT22;67555;47.660;19.622;2023-04-24T00:29:23;8.20;62.60
78297;DHT22;67555;47.660;19.622;2023-04-24T00:31:48;8.10;62.50
78297;DHT22;67555;47.660;19.622;2023-04-24T00:34:14;8.10;62.60
78297;DHT22;67555;47.660;19.622;2023-04-24T00:36:40;8.20;62.50
78297;DHT22;67555;47.660;19.622;2023-04-24T00:39:06;8.20;62.50
78297;DHT22;67555;47.660;19.622;2023-04-24T00:41:34;8.20;62.60
78297;DHT22;67555;47.660;19.622;2023-04-24T00:44:00;8.20;62.70
78297;DHT22;67555;47.660;19.622;2023-04-24T00:46:26;8.30;62.60
78297;DHT22;67555;47.660;19.622;2023-04-24T00:48:52;8.50;62.30
78297;DHT22;67555;47.660;19.622;2023-04-24T00:51:18;8.60;62.00
78297;DHT22;67555;47.660;19.622;2023-04-24T00:53:43;8.60;62.00
78297;DHT22;67555;47.660;19.622;2023-04-24T00:56:09;8.50;62.20
78297;DHT22;67555;47.660;19.622;2023-04-24T00:58:36;8.50;62.30
78297;DHT22;67555;47.660;19.622;2023-04-24T01:01:02;8.50;62.50
78297;DHT22;67555;47.660;19.622;2023-04-24T01:03:33;8.50;62.50
78297;DHT22;67555;47.660;19.622;2023-04-24T01:05:59;8.40;62.70
78297;DHT22;67555;47.660;19.622;2023-04-24T01:08:26;8.40;62.80
78297;DHT22;67555;47.660;19.622;2023-04-24T01:10:54;8.50;62.80
78297;DHT22;67555;47.660;19.622;2023-04-24T01:13:20;8.60;62.60
78297;DHT22;67555;47.660;19.622;2023-04-24T01:15:47;8.60;62.50
78297;DHT22;67555;47.660;19.622;2023-04-24T01:18:13;8.70;62.40
78297;DHT22;67555;47.660;19.622;2023-04-24T01:20:42;8.90;62.10
78297;DHT22;67555;47.660;19.622;2023-04-24T01:23:10;9.00;61.90
78297;DHT22;67555;47.660;19.622;2023-04-24T01:25:36;9.20;61.60
78297;DHT22;67555;47.660;19.622;2023-04-24T01:28:03;9.30;61.30
78297;DHT22;67555;47.660;19.622;2023-04-24T01:30:29;9.40;61.20
78297;DHT22;67555;47.660;19.622;2023-04-24T01:32:55;9.50;61.00
78297;DHT22;67555;47.660;19.622;2023-04-24T01:35:21;9.50;61.00
78297;DHT22;67555;47.660;19.622;2023-04-24T01:37:47;9.70;60.80
78297;DHT22;67555;47.660;19.622;2023-04-24T01:40:13;9.70;60.70
78297;DHT22;67555;47.660;19.622;2023-04-24T01:42:41;9.80;60.70
78297;DHT22;67555;47.660;19.622;2023-04-24T01:45:09;10.00;60.50
78297;DHT22;67555;47.660;19.622;2023-04-24T01:47:36;10.00;60.40
78297;DHT22;67555;47.660;19.622;2023-04-24T01:50:02;10.10;60.40
78297;DHT22;67555;47.660;19.622;2023-04-24T01:52:28;10.10;60.40
78297;DHT22;67555;47.660;19.622;2023-04-24T01:54:59;10.10;60.40
78297;DHT22;67555;47.660;19.622;2023-04-24T01:57:26;10.10;60.50
78297;DHT22;67555;47.660;19.622;2023-04-24T01:59:52;10.10;60.60
78297;DHT22;67555;47.660;19.622;2023-04-24T02:02:19;10.10;60.80
78297;DHT22;67555;47.660;19.622;2023-04-24T02:04:46;10.10;60.90
78297;DHT22;67555;47.660;19.622;2023-04-24T02:07:12;10.20;60.80
78297;DHT22;67555;47.660;19.622;2023-04-24T02:09:38;10.30;60.70
78297;DHT22;67555;47.660;19.622;2023-04-24T02:12:04;10.30;60.70
78297;DHT22;67555;47.660;19.622;2023-04-24T02:14:29;10.30;60.70
78297;DHT22;67555;47.660;19.622;2023-04-24T02:16:55;10.40;60.70
78297;DHT22;67555;47.660;19.622;2023-04-24T02:19:21;10.50;60.60
78297;DHT22;67555;47.660;19.622;2023-04-24T02:21:46;10.70;60.40
78297;DHT22;67555;47.660;19.622;2023-04-24T02:24:12;10.80;60.30
78297;DHT22;67555;47.660;19.622;2023-04-24T02:26:38;10.90;60.10
78297;DHT22;67555;47.660;19.622;2023-04-24T02:29:04;11.00;59.80
78297;DHT22;67555;47.660;19.622;2023-04-24T02:31:29;11.10;59.70
78297;DHT22;67555;47.660;19.622;2023-04-24T02:33:57;11.10;59.80
78297;DHT22;67555;47.660;19.622;2023-04-24T02:36:22;11.30;59.90
78297;DHT22;67555;47.660;19.622;2023-04-24T02:38:48;11.30;60.00
78297;DHT22;67555;47.660;19.622;2023-04-24T02:41:14;11.40;59.80
78297;DHT22;67555;47.660;19.622;2023-04-24T02:43:39;11.40;59.80
78297;DHT22;67555;47.660;19.622;2023-04-24T02:46:05;11.50;59.60
78297;DHT22;67555;47.660;19.622;2023-04-24T02:48:31;11.50;59.50
78297;DHT22;67555;47.660;19.622;2023-04-24T02:50:56;11.50;59.40
78297;DHT22;67555;47.660;19.622;2023-04-24T02:53:23;11.50;59.30
78297;DHT22;67555;47.660;19.622;2023-04-24T02:55:49;11.50;59.40
78297;DHT22;67555;47.660;19.622;2023-04-24T02:58:14;11.40;59.70
78297;DHT22;67555;47.660;19.622;2023-04-24T03:00:41;11.20;60.20
78297;DHT22;67555;47.660;19.622;2023-04-24T03:03:06;11.10;60.30
78297;DHT22;67555;47.660;19.622;2023-04-24T03:05:33;11.20;60.30
78297;DHT22;67555;47.660;19.622;2023-04-24T03:07:59;11.30;60.20
78297;DHT22;67555;47.660;19.622;2023-04-24T03:10:26;11.40;60.00
78297;DHT22;67555;47.660;19.622;2023-04-24T03:12:52;11.50;59.80
78297;DHT22;67555;47.660;19.622;2023-04-24T03:15:18;11.50;59.60
78297;DHT22;67555;47.660;19.622;2023-04-24T03:17:43;11.70;59.40
78297;DHT22;67555;47.660;19.622;2023-04-24T03:20:09;11.70;59.30
78297;DHT22;67555;47.660;19.622;2023-04-24T03:22:35;11.80;59.20
78297;DHT22;67555;47.660;19.622;2023-04-24T03:25:01;11.90;59.00
78297;DHT22;67555;47.660;19.622;2023-04-24T03:27:28;12.00;58.90
78297;DHT22;67555;47.660;19.622;2023-04-24T03:29:54;12.00;58.70
78297;DHT22;67555;47.660;19.622;2023-04-24T03:32:23;12.10;58.60
78297;DHT22;67555;47.660;19.622;2023-04-24T03:34:49;12.20;58.40
78297;DHT22;67555;47.660;19.622;2023-04-24T03:37:16;12.30;58.30
78297;DHT22;67555;47.660;19.622;2023-04-24T03:39:42;12.30;58.20
78297;DHT22;67555;47.660;19.622;2023-04-24T03:42:09;12.50;58.10
78297;DHT22;67555;47.660;19.622;2023-04-24T03:44:35;12.50;58.00
78297;DHT22;67555;47.660;19.622;2023-04-24T03:47:01;12.50;57.80
78297;DHT22;67555;47.660;19.622;2023-04-24T03:49:27;12.70;57.70
78297;DHT22;67555;47.660;19.622;2023-04-24T03:51:53;12.80;57.60
78297;DHT22;67555;47.660;19.622;2023-04-24T03:54:19;12.80;57.50
78297;DHT22;67555;47.660;19.622;2023-04-24T03:56:45;12.90;57.50
78297;DHT22;67555;47.660;19.622;2023-04-24T03:59:11;12.90;57.60
78297;DHT22;67555;47.660;19.622;2023-04-24T04:01:37;12.90;57.80
78297;DHT22;67555;47.660;19.622;2023-04-24T04:04:03;12.80;58.20
78297;DHT22;67555;47.660;19.622;2023-04-24T04:06:29;12.70;58.80
78297;DHT22;67555;47.660;19.622;2023-04-24T04:08:56;12.50;59.40
78297;DHT22;67555;47.660;19.622;2023-04-24T04:11:23;12.40;60.00
78297;DHT22;67555;47.660;19.622;2023-04-24T04:13:48;12.40;60.20
78297;DHT22;67555;47.660;19.622;2023-04-24T04:16:14;12.40;60.50
78297;DHT22;67555;47.660;19.622;2023-04-24T04:18:42;12.40;60.50
78297;DHT22;67555;47.660;19.622;2023-04-24T04:21:08;12.50;60.70
78297;DHT22;67555;47.660;19.622;2023-04-24T04:23:34;12.50;60.80
78297;DHT22;67555;47.660;19.622;2023-04-24T04:26:00;12.50;60.90
78297;DHT22;67555;47.660;19.622;2023-04-24T04:28:26;12.50;61.10
78297;DHT22;67555;47.660;19.622;2023-04-24T04:30:52;12.40;61.30
78297;DHT22;67555;47.660;19.622;2023-04-24T04:33:21;12.40;61.50
78297;DHT22;67555;47.660;19.622;2023-04-24T04:35:47;12.50;61.60
78297;DHT22;67555;47.660;19.622;2023-04-24T04:38:18;12.50;61.70
78297;DHT22;67555;47.660;19.622;2023-04-24T04:40:44;12.50;61.70
78297;DHT22;67555;47.660;19.622;2023-04-24T04:43:10;12.50;61.70
78297;DHT22;67555;47.660;19.622;2023-04-24T04:45:37;12.50;61.80
78297;DHT22;67555;47.660;19.622;2023-04-24T04:48:04;12.50;61.90
78297;DHT22;67555;47.660;19.622;2023-04-24T04:50:32;12.50;62.00
78297;DHT22;67555;47.660;19.622;2023-04-24T04:52:58;12.50;62.10
78297;DHT22;67555;47.660;19.622;2023-04-24T04:55:24;12.50;62.10
78297;DHT22;67555;47.660;19.622;2023-04-24T04:57:50;12.50;62.10
78297;DHT22;67555;47.660;19.622;2023-04-24T05:00:16;12.50;62.10
78297;DHT22;67555;47.660;19.622;2023-04-24T05:02:42;12.50;62.20
78297;DHT22;67555;47.660;19.622;2023-04-24T05:05:08;12.50;62.40
78297;DHT22;67555;47.660;19.622;2023-04-24T05:07:34;12.50;62.50
78297;DHT22;67555;47.660;19.622;2023-04-24T05:10:00;12.50;62.60
78297;DHT22;67555;47.660;19.622;2023-04-24T05:12:26;12.50;62.70
78297;DHT22;67555;47.660;19.622;2023-04-24T05:14:52;12.50;62.70
78297;DHT22;67555;47.660;19.622;2023-04-24T05:17:18;12.50;62.80
78297;DHT22;67555;47.660;19.622;2023-04-24T05:19:45;12.50;62.80
78297;DHT22;67555;47.660;19.622;2023-04-24T05:22:12;12.50;62.80
78297;DHT22;67555;47.660;19.622;2023-04-24T05:24:38;12.50;62.80
78297;DHT22;67555;47.660;19.622;2023-04-24T05:27:04;12.50;62.60
78297;DHT22;67555;47.660;19.622;2023-04-24T05:29:30;12.60;62.50
78297;DHT22;67555;47.660;19.622;2023-04-24T05:31:57;12.70;62.40
78297;DHT22;67555;47.660;19.622;2023-04-24T05:34:23;12.80;62.30
78297;DHT22;67555;47.660;19.622;2023-04-24T05:36:49;12.90;62.20
78297;DHT22;67555;47.660;19.622;2023-04-24T05:39:16;12.90;62.20
78297;DHT22;67555;47.660;19.622;2023-04-24T05:41:41;12.90;62.20
78297;DHT22;67555;47.660;19.622;2023-04-24T05:44:07;13.00;62.10
78297;DHT22;67555;47.660;19.622;2023-04-24T05:46:33;13.10;61.90
78297;DHT22;67555;47.660;19.622;2023-04-24T05:48:58;13.30;61.70
78297;DHT22;67555;47.660;19.622;2023-04-24T05:51:24;13.30;61.50
78297;DHT22;67555;47.660;19.622;2023-04-24T05:53:51;13.40;61.40
78297;DHT22;67555;47.660;19.622;2023-04-24T05:56:17;13.50;61.40
78297;DHT22;67555;47.660;19.622;2023-04-24T05:58:43;13.50;61.20
78297;DHT22;67555;47.660;19.622;2023-04-24T06:01:09;13.60;61.10
78297;DHT22;67555;47.660;19.622;2023-04-24T06:03:35;13.60;61.10
78297;DHT22;67555;47.660;19.622;2023-04-24T06:06:00;13.70;61.00
78297;DHT22;67555;47.660;19.622;2023-04-24T06:08:26;13.70;60.90
78297;DHT22;67555;47.660;19.622;2023-04-24T06:10:52;13.70;61.00
78297;DHT22;67555;47.660;19.622;2023-04-24T06:13:17;13.90;60.90
78297;DHT22;67555;47.660;19.622;2023-04-24T06:15:44;13.90;60.90
78297;DHT22;67555;47.660;19.622;2023-04-24T06:18:09;13.90;60.90
78297;DHT22;67555;47.660;19.622;2023-04-24T06:20:38;14.00;60.80
78297;DHT22;67555;47.660;19.622;2023-04-24T06:23:04;14.10;60.70
78297;DHT22;67555;47.660;19.622;2023-04-24T06:25:30;14.30;60.50
78297;DHT22;67555;47.660;19.622;2023-04-24T06:27:56;14.60;60.10
78297;DHT22;67555;47.660;19.622;2023-04-24T06:30:22;15.00;59.60
78297;DHT22;67555;47.660;19.622;2023-04-24T06:32:48;15.20;59.20
78297;DHT22;67555;47.660;19.622;2023-04-24T06:35:14;15.40;58.80
78297;DHT22;67555;47.660;19.622;2023-04-24T06:37:40;15.50;58.30
78297;DHT22;67555;47.660;19.622;2023-04-24T06:40:07;15.60;58.00
78297;DHT22;67555;47.660;19.622;2023-04-24T06:42:33;15.60;57.90
78297;DHT22;67555;47.660;19.622;2023-04-24T06:45:00;15.60;57.80
78297;DHT22;67555;47.660;19.622;2023-04-24T06:47:26;15.60;57.70
78297;DHT22;67555;47.660;19.622;2023-04-24T06:49:52;15.50;57.80
78297;DHT22;67555;47.660;19.622;2023-04-24T06:52:18;15.50;57.80
78297;DHT22;67555;47.660;19.622;2023-04-24T06:54:44;15.50;57.80
78297;DHT22;67555;47.660;19.622;2023-04-24T06:57:10;15.50;57.70
78297;DHT22;67555;47.660;19.622;2023-04-24T06:59:36;15.40;57.70
78297;DHT22;67555;47.660;19.622;2023-04-24T07:02:02;15.30;57.90
78297;DHT22;67555;47.660;19.622;2023-04-24T07:04:28;15.30;57.90
78297;DHT22;67555;47.660;19.622;2023-04-24T07:06:54;15.30;57.90
78297;DHT22;67555;47.660;19.622;2023-04-24T07:09:25;15.30;57.90
78297;DHT22;67555;47.660;19.622;2023-04-24T07:11:54;15.50;57.70
78297;DHT22;67555;47.660;19.622;2023-04-24T07:14:22;15.60;57.60
78297;DHT22;67555;47.660;19.622;2023-04-24T07:16:48;15.60;57.70
78297;DHT22;67555;47.660;19.622;2023-04-24T07:19:13;15.60;57.70
78297;DHT22;67555;47.660;19.622;2023-04-24T07:21:39;15.70;57.50
78297;DHT22;67555;47.660;19.622;2023-04-24T07:24:06;15.80;57.30
78297;DHT22;67555;47.660;19.622;2023-04-24T07:26:36;15.80;57.20
78297;DHT22;67555;47.660;19.622;2023-04-24T07:29:02;15.80;57.10
78297;DHT22;67555;47.660;19.622;2023-04-24T07:31:28;15.90;57.00
78297;DHT22;67555;47.660;19.622;2023-04-24T07:33:54;16.00;56.90
78297;DHT22;67555;47.660;19.622;2023-04-24T07:36:19;16.10;56.80
78297;DHT22;67555;47.660;19.622;2023-04-24T07:38:46;16.20;56.60
78297;DHT22;67555;47.660;19.622;2023-04-24T07:41:13;16.20;56.50
78297;DHT22;67555;47.660;19.622;2023-04-24T07:43:39;16.20;56.40
78297;DHT22;67555;47.660;19.622;2023-04-24T07:46:05;16.10;56.50
78297;DHT22;67555;47.660;19.622;2023-04-24T07:48:31;16.10;56.50
78297;DHT22;67555;47.660;19.622;2023-04-24T07:50:56;16.00;56.70
78297;DHT22;67555;47.660;19.622;2023-04-24T07:53:22;15.80;57.00
78297;DHT22;67555;47.660;19.622;2023-04-24T07:55:48;15.80;57.30
78297;DHT22;67555;47.660;19.622;2023-04-24T07:58:13;15.60;57.60
78297;DHT22;67555;47.660;19.622;2023-04-24T08:00:39;15.50;57.90
78297;DHT22;67555;47.660;19.622;2023-04-24T08:03:05;15.50;58.10
78297;DHT22;67555;47.660;19.622;2023-04-24T08:05:30;15.50;58.30
78297;DHT22;67555;47.660;19.622;2023-04-24T08:07:56;15.50;58.40
78297;DHT22;67555;47.660;19.622;2023-04-24T08:10:22;15.50;58.60
78297;DHT22;67555;47.660;19.622;2023-04-24T08:12:48;15.50;58.70
78297;DHT22;67555;47.660;19.622;2023-04-24T08:15:14;15.60;58.80
78297;DHT22;67555;47.660;19.622;2023-04-24T08:17:40;15.60;58.80
78297;DHT22;67555;47.660;19.622;2023-04-24T08:20:06;15.80;58.80
78297;DHT22;67555;47.660;19.622;2023-04-24T08:22:35;15.90;58.70
78297;DHT22;67555;47.660;19.622;2023-04-24T08:25:02;16.00;58.70
78297;DHT22;67555;47.660;19.622;2023-04-24T08:27:27;16.00;58.80
78297;DHT22;67555;47.660;19.622;2023-04-24T08:29:54;16.00;59.00
78297;DHT22;67555;47.660;19.622;2023-04-24T08:32:20;16.00;59.10
78297;DHT22;67555;47.660;19.622;2023-04-24T08:34:45;16.00;59.10
78297;DHT22;67555;47.660;19.622;2023-04-24T08:37:11;16.10;59.10
78297;DHT22;67555;47.660;19.622;2023-04-24T08:39:37;16.10;59.20
78297;DHT22;67555;47.660;19.622;2023-04-24T08:42:04;16.10;59.20
78297;DHT22;67555;47.660;19.622;2023-04-24T08:44:35;16.30;59.20
78297;DHT22;67555;47.660;19.622;2023-04-24T08:47:02;16.40;59.10
78297;DHT22;67555;47.660;19.622;2023-04-24T08:49:29;16.60;58.80
78297;DHT22;67555;47.660;19.622;2023-04-24T08:51:54;16.80;58.60
78297;DHT22;67555;47.660;19.622;2023-04-24T08:54:21;16.90;58.40
78297;DHT22;67555;47.660;19.622;2023-04-24T08:56:48;17.00;58.40
78297;DHT22;67555;47.660;19.622;2023-04-24T08:59:18;17.20;58.20
78297;DHT22;67555;47.660;19.622;2023-04-24T09:01:45;17.50;57.80
78297;DHT22;67555;47.660;19.622;2023-04-24T09:04:12;17.60;57.50
78297;DHT22;67555;47.660;19.622;2023-04-24T09:06:40;17.80;57.20
78297;DHT22;67555;47.660;19.622;2023-04-24T09:09:07;17.90;57.00
78297;DHT22;67555;47.660;19.622;2023-04-24T09:11:33;18.00;56.80
78297;DHT22;67555;47.660;19.622;2023-04-24T09:14:00;18.00;56.70
78297;DHT22;67555;47.660;19.622;2023-04-24T09:16:26;18.10;56.60
78297;DHT22;67555;47.660;19.622;2023-04-24T09:18:52;18.20;56.50
78297;DHT22;67555;47.660;19.622;2023-04-24T09:21:21;18.40;56.30
78297;DHT22;67555;47.660;19.622;2023-04-24T09:23:58;18.50;56.10
78297;DHT22;67555;47.660;19.622;2023-04-24T09:26:24;18.50;55.80
78297;DHT22;67555;47.660;19.622;2023-04-24T09:28:50;18.60;55.70
78297;DHT22;67555;47.660;19.622;2023-04-24T09:31:19;18.60;55.70
78297;DHT22;67555;47.660;19.622;2023-04-24T09:34:03;18.60;55.70
78297;DHT22;67555;47.660;19.622;2023-04-24T09:36:38;18.60;55.80
78297;DHT22;67555;47.660;19.622;2023-04-24T09:39:07;18.60;55.80
78297;DHT22;67555;47.660;19.622;2023-04-24T09:41:34;18.70;55.80
78297;DHT22;67555;47.660;19.622;2023-04-24T09:44:14;18.80;55.80
78297;DHT22;67555;47.660;19.622;2023-04-24T09:46:42;18.90;55.60
78297;DHT22;67555;47.660;19.622;2023-04-24T09:49:13;19.00;55.40
78297;DHT22;67555;47.660;19.622;2023-04-24T09:51:40;19.10;55.40
78297;DHT22;67555;47.660;19.622;2023-04-24T09:54:17;19.10;55.20
78297;DHT22;67555;47.660;19.622;2023-04-24T09:56:45;19.20;55.30
78297;DHT22;67555;47.660;19.622;2023-04-24T09:59:12;19.40;55.20
78297;DHT22;67555;47.660;19.622;2023-04-24T10:01:38;19.50;55.10
78297;DHT22;67555;47.660;19.622;2023-04-24T10:04:15;19.70;54.80
78297;DHT22;67555;47.660;19.622;2023-04-24T10:06:43;19.60;54.80
78297;DHT22;67555;47.660;19.622;2023-04-24T10:09:09;19.60;54.90
78297;DHT22;67555;47.660;19.622;2023-04-24T10:11:39;19.70;54.80
78297;DHT22;67555;47.660;19.622;2023-04-24T10:14:07;20.00;54.70
78297;DHT22;67555;47.660;19.622;2023-04-24T10:16:34;20.10;54.50
78297;DHT22;67555;47.660;19.622;2023-04-24T10:19:00;20.30;54.40
78297;DHT22;67555;47.660;19.622;2023-04-24T10:21:26;20.50;54.20
78297;DHT22;67555;47.660;19.622;2023-04-24T10:23:53;20.60;53.80
78297;DHT22;67555;47.660;19.622;2023-04-24T10:26:19;20.70;53.70
78297;DHT22;67555;47.660;19.622;2023-04-24T10:28:46;20.70;53.50
78297;DHT22;67555;47.660;19.622;2023-04-24T10:31:13;20.70;53.50
78297;DHT22;67555;47.660;19.622;2023-04-24T10:33:41;20.70;53.60
78297;DHT22;67555;47.660;19.622;2023-04-24T10:36:09;20.60;53.60
78297;DHT22;67555;47.660;19.622;2023-04-24T10:38:37;20.50;53.70
78297;DHT22;67555;47.660;19.622;2023-04-24T10:41:11;20.50;53.90
78297;DHT22;67555;47.660;19.622;2023-04-24T10:43:45;20.40;54.20
78297;DHT22;67555;47.660;19.622;2023-04-24T10:46:19;20.30;54.30
78297;DHT22;67555;47.660;19.622;2023-04-24T10:48:53;20.50;54.40
78297;DHT22;67555;47.660;19.622;2023-04-24T10:51:24;20.50;54.30
78297;DHT22;67555;47.660;19.622;2023-04-24T10:56:51;21.30;53.60
78297;DHT22;67555;47.660;19.622;2023-04-24T10:59:27;21.50;53.10
78297;DHT22;67555;47.660;19.622;2023-04-24T11:02:00;21.70;52.70
78297;DHT22;67555;47.660;19.622;2023-04-24T11:04:32;21.70;52.50
78297;DHT22;67555;47.660;19.622;2023-04-24T11:06:59;21.90;52.20
78297;DHT22;67555;47.660;19.622;2023-04-24T11:09:31;22.10;52.10
78297;DHT22;67555;47.660;19.622;2023-04-24T11:12:11;22.10;52.00
78297;DHT22;67555;47.660;19.622;2023-04-24T11:17:37;22.30;51.70
78297;DHT22;67555;47.660;19.622;2023-04-24T11:20:16;22.20;51.60
78297;DHT22;67555;47.660;19.622;2023-04-24T11:22:41;22.10;51.60
78297;DHT22;67555;47.660;19.622;2023-04-24T11:25:08;22.10;51.60
78297;DHT22;67555;47.660;19.622;2023-04-24T11:27:42;22.00;51.70
78297;DHT22;67555;47.660;19.622;2023-04-24T11:30:09;22.10;51.60
78297;DHT22;67555;47.660;19.622;2023-04-24T11:32:40;22.10;51.50
78297;DHT22;67555;47.660;19.622;2023-04-24T11:35:15;22.30;51.10
78297;DHT22;67555;47.660;19.622;2023-04-24T11:37:46;22.30;50.70
78297;DHT22;67555;47.660;19.622;2023-04-24T11:40:13;22.10;50.90
78297;DHT22;67555;47.660;19.622;2023-04-24T11:42:51;22.10;50.90
78297;DHT22;67555;47.660;19.622;2023-04-24T11:45:25;21.90;51.00
78297;DHT22;67555;47.660;19.622;2023-04-24T11:47:51;21.70;51.20
78297;DHT22;67555;47.660;19.622;2023-04-24T11:50:19;21.30;51.70
78297;DHT22;67555;47.660;19.622;2023-04-24T11:52:47;21.10;52.00
78297;DHT22;67555;47.660;19.622;2023-04-24T11:57:49;20.70;52.80
78297;DHT22;67555;47.660;19.622;2023-04-24T12:02:44;20.50;53.20
78297;DHT22;67555;47.660;19.622;2023-04-24T12:05:26;20.30;53.70
78297;DHT22;67555;47.660;19.622;2023-04-24T12:07:53;20.30;54.00
78297;DHT22;67555;47.660;19.622;2023-04-24T12:10:23;20.20;54.00
78297;DHT22;67555;47.660;19.622;2023-04-24T12:12:50;20.10;54.30
78297;DHT22;67555;47.660;19.622;2023-04-24T12:15:21;20.00;54.60
78297;DHT22;67555;47.660;19.622;2023-04-24T12:17:48;19.90;54.90
78297;DHT22;67555;47.660;19.622;2023-04-24T12:20:14;20.00;55.10
78297;DHT22;67555;47.660;19.622;2023-04-24T12:23:06;19.90;55.40
78297;DHT22;67555;47.660;19.622;2023-04-24T12:25:32;20.00;55.70
78297;DHT22;67555;47.660;19.622;2023-04-24T12:30:31;20.30;55.50
78297;DHT22;67555;47.660;19.622;2023-04-24T12:32:59;20.50;55.50
78297;DHT22;67555;47.660;19.622;2023-04-24T12:35:27;20.70;55.40
78297;DHT22;67555;47.660;19.622;2023-04-24T12:37:54;20.80;55.30
78297;DHT22;67555;47.660;19.622;2023-04-24T12:40:21;21.00;55.20
78297;DHT22;67555;47.660;19.622;2023-04-24T12:42:49;21.10;55.10
78297;DHT22;67555;47.660;19.622;2023-04-24T12:45:16;21.40;54.90
78297;DHT22;67555;47.660;19.622;2023-04-24T12:47:43;21.70;54.70
78297;DHT22;67555;47.660;19.622;2023-04-24T12:50:11;21.90;54.40
78297;DHT22;67555;47.660;19.622;2023-04-24T12:52:37;21.90;54.20
78297;DHT22;67555;47.660;19.622;2023-04-24T12:55:05;22.00;54.20
78297;DHT22;67555;47.660;19.622;2023-04-24T12:57:34;22.10;54.10
78297;DHT22;67555;47.660;19.622;2023-04-24T13:00:00;22.10;53.90
78297;DHT22;67555;47.660;19.622;2023-04-24T13:02:30;22.00;53.80
78297;DHT22;67555;47.660;19.622;2023-04-24T13:05:00;21.90;53.80
78297;DHT22;67555;47.660;19.622;2023-04-24T13:07:26;21.70;54.00
78297;DHT22;67555;47.660;19.622;2023-04-24T13:09:53;21.30;54.40
78297;DHT22;67555;47.660;19.622;2023-04-24T13:12:19;20.90;55.10
78297;DHT22;67555;47.660;19.622;2023-04-24T13:14:45;20.60;55.80
78297;DHT22;67555;47.660;19.622;2023-04-24T13:17:12;20.30;56.60
78297;DHT22;67555;47.660;19.622;2023-04-24T13:19:43;20.00;57.40
78297;DHT22;67555;47.660;19.622;2023-04-24T13:22:12;19.80;58.00
78297;DHT22;67555;47.660;19.622;2023-04-24T13:24:39;19.50;58.50
78297;DHT22;67555;47.660;19.622;2023-04-24T13:27:08;19.30;59.00
78297;DHT22;67555;47.660;19.622;2023-04-24T13:29:35;19.10;59.60
78297;DHT22;67555;47.660;19.622;2023-04-24T13:32:01;18.80;59.90
78297;DHT22;67555;47.660;19.622;2023-04-24T13:34:26;18.60;60.30
78297;DHT22;67555;47.660;19.622;2023-04-24T13:36:56;18.40;60.70
78297;DHT22;67555;47.660;19.622;2023-04-24T13:39:24;18.10;61.10
78297;DHT22;67555;47.660;19.622;2023-04-24T13:41:50;18.00;61.50
78297;DHT22;67555;47.660;19.622;2023-04-24T13:44:17;18.00;61.70
78297;DHT22;67555;47.660;19.622;2023-04-24T13:46:44;18.00;61.90
78297;DHT22;67555;47.660;19.622;2023-04-24T13:49:11;18.00;61.80
78297;DHT22;67555;47.660;19.622;2023-04-24T13:51:38;18.10;61.80
78297;DHT22;67555;47.660;19.622;2023-04-24T13:54:03;18.30;61.80
78297;DHT22;67555;47.660;19.622;2023-04-24T13:56:30;18.40;61.70
78297;DHT22;67555;47.660;19.622;2023-04-24T13:58:56;18.50;61.70
78297;DHT22;67555;47.660;19.622;2023-04-24T14:01:22;18.60;61.50
78297;DHT22;67555;47.660;19.622;2023-04-24T14:03:54;18.80;61.40
78297;DHT22;67555;47.660;19.622;2023-04-24T14:06:21;18.80;61.10
78297;DHT22;67555;47.660;19.622;2023-04-24T14:08:49;18.80;61.10
78297;DHT22;67555;47.660;19.622;2023-04-24T14:11:16;18.80;61.40
78297;DHT22;67555;47.660;19.622;2023-04-24T14:13:42;18.70;61.60
78297;DHT22;67555;47.660;19.622;2023-04-24T14:16:08;18.70;61.30
78297;DHT22;67555;47.660;19.622;2023-04-24T14:18:34;18.70;61.30
78297;DHT22;67555;47.660;19.622;2023-04-24T14:21:00;18.60;61.50
78297;DHT22;67555;47.660;19.622;2023-04-24T14:23:27;18.60;61.50
78297;DHT22;67555;47.660;19.622;2023-04-24T14:25:53;18.60;61.70
78297;DHT22;67555;47.660;19.622;2023-04-24T14:28:19;18.50;62.10
78297;DHT22;67555;47.660;19.622;2023-04-24T14:30:46;18.50;62.20
78297;DHT22;67555;47.660;19.622;2023-04-24T14:33:12;18.50;62.40
78297;DHT22;67555;47.660;19.622;2023-04-24T14:35:57;18.50;62.50
78297;DHT22;67555;47.660;19.622;2023-04-24T14:38:23;18.50;62.60
78297;DHT22;67555;47.660;19.622;2023-04-24T14:40:49;18.50;62.60
78297;DHT22;67555;47.660;19.622;2023-04-24T14:43:14;18.60;62.70
78297;DHT22;67555;47.660;19.622;2023-04-24T14:45:40;18.70;62.70
78297;DHT22;67555;47.660;19.622;2023-04-24T14:48:07;18.70;62.50
78297;DHT22;67555;47.660;19.622;2023-04-24T14:50:33;18.70;62.60
78297;DHT22;67555;47.660;19.622;2023-04-24T14:52:59;18.60;62.60
78297;DHT22;67555;47.660;19.622;2023-04-24T14:55:25;18.50;62.80
78297;DHT22;67555;47.660;19.622;2023-04-24T14:57:51;18.30;63.00
78297;DHT22;67555;47.660;19.622;2023-04-24T15:00:18;18.10;63.30
78297;DHT22;67555;47.660;19.622;2023-04-24T15:02:47;18.00;63.60
78297;DHT22;67555;47.660;19.622;2023-04-24T15:05:12;17.80;63.80
78297;DHT22;67555;47.660;19.622;2023-04-24T15:07:38;17.50;64.10
78297;DHT22;67555;47.660;19.622;2023-04-24T15:10:05;17.40;64.30
78297;DHT22;67555;47.660;19.622;2023-04-24T15:12:31;17.20;64.60
78297;DHT22;67555;47.660;19.622;2023-04-24T15:14:58;17.10;64.90
78297;DHT22;67555;47.660;19.622;2023-04-24T15:17:24;17.00;65.20
78297;DHT22;67555;47.660;19.622;2023-04-24T15:19:50;16.90;65.40
78297;DHT22;67555;47.660;19.622;2023-04-24T15:22:16;16.80;65.60
78297;DHT22;67555;47.660;19.622;2023-04-24T15:24:41;16.70;65.90
78297;DHT22;67555;47.660;19.622;2023-04-24T15:27:10;16.70;66.00
78297;DHT22;67555;47.660;19.622;2023-04-24T15:29:36;16.60;66.20